createdAt,value
2022-09-02T00:01:38.171Z,0.40
2022-09-02T00:04:09.545Z,0.30
2022-09-02T00:06:37.074Z,0.30
2022-09-02T00:09:06.646Z,0.23
2022-09-02T00:11:35.426Z,0.33
2022-09-02T00:14:05.799Z,0.40
2022-09-02T00:16:33.578Z,0.30
2022-09-02T00:19:02.612Z,0.30
2022-09-02T00:21:30.779Z,0.30
2022-09-02T00:23:57.459Z,0.40
2022-09-02T00:26:24.726Z,0.47
2022-09-02T00:28:56.391Z,1.50
2022-09-02T00:31:24.943Z,2.37
2022-09-02T00:33:52.059Z,2.57
2022-09-02T00:36:18.703Z,3.23
2022-09-02T00:38:45.409Z,2.43
2022-09-02T00:41:12.337Z,0.40
2022-09-02T00:43:46.694Z,0.30
2022-09-02T00:46:16.146Z,0.60
2022-09-02T00:49:12.802Z,0.37
2022-09-02T00:51:51.520Z,0.50
2022-09-02T00:54:20.806Z,0.40
2022-09-02T00:56:49.964Z,1.07
2022-09-02T00:59:34.978Z,1.60
2022-09-02T01:02:01.855Z,2.20
2022-09-02T01:04:29.359Z,2.87
2022-09-02T01:06:56.133Z,1.20
2022-09-02T01:09:23.357Z,0.40
2022-09-02T01:11:53.554Z,0.40
2022-09-02T01:14:20.182Z,0.60
2022-09-02T01:16:51.526Z,0.80
2022-09-02T01:19:40.729Z,1.40
2022-09-02T01:22:19.902Z,1.30
2022-09-02T01:24:46.734Z,0.40
2022-09-02T01:27:18.448Z,0.63
2022-09-02T01:29:46.050Z,0.60
2022-09-02T01:32:12.745Z,0.30
2022-09-02T01:34:39.386Z,0.50
2022-09-02T01:37:07.177Z,0.60
2022-09-02T01:39:33.851Z,0.63
2022-09-02T01:42:01.238Z,0.50
2022-09-02T01:44:28.195Z,0.60
2022-09-02T01:46:55.621Z,0.40
2022-09-02T01:49:23.061Z,0.60
2022-09-02T01:51:50.058Z,1.00
2022-09-02T01:54:16.699Z,1.10
2022-09-02T01:56:43.359Z,0.60
2022-09-02T01:59:11.823Z,0.83
2022-09-02T02:01:38.597Z,0.70
2022-09-02T02:04:05.405Z,0.70
2022-09-02T02:06:32.150Z,0.70
2022-09-02T02:08:58.893Z,0.40
2022-09-02T02:11:25.930Z,0.53
2022-09-02T02:13:52.682Z,0.30
2022-09-02T02:16:19.468Z,0.27
2022-09-02T02:18:46.361Z,0.50
2022-09-02T02:21:13.022Z,0.40
2022-09-02T02:23:41.374Z,0.50
2022-09-02T02:26:08.646Z,0.40
2022-09-02T02:28:36.143Z,0.50
2022-09-02T02:31:02.896Z,0.30
2022-09-02T02:33:33.279Z,0.40
2022-09-02T02:36:05.213Z,0.30
2022-09-02T02:38:33.751Z,0.50
2022-09-02T02:41:02.021Z,0.47
2022-09-02T02:43:28.681Z,0.40
2022-09-02T02:45:55.359Z,0.37
2022-09-02T02:48:23.109Z,0.20
2022-09-02T02:50:50.082Z,0.27
2022-09-02T02:53:17.622Z,0.30
2022-09-02T02:55:45.529Z,0.37
2022-09-02T02:58:16.738Z,0.30
2022-09-02T03:00:44.580Z,0.30
2022-09-02T03:03:12.051Z,0.40
2022-09-02T03:05:40.219Z,0.40
2022-09-02T03:08:09.815Z,0.30
2022-09-02T03:10:38.754Z,0.30
2022-09-02T03:13:05.844Z,0.20
2022-09-02T03:15:32.557Z,0.30
2022-09-02T03:17:59.429Z,0.20
2022-09-02T03:20:26.097Z,0.30
2022-09-02T03:22:56.551Z,0.20
2022-09-02T03:25:25.061Z,0.20
2022-09-02T03:27:53.085Z,0.30
2022-09-02T03:30:25.260Z,0.50
2022-09-02T03:32:53.798Z,0.40
2022-09-02T03:35:21.961Z,0.30
2022-09-02T03:37:50.247Z,0.30
2022-09-02T03:40:23.710Z,0.53
2022-09-02T03:42:51.139Z,0.30
2022-09-02T03:45:18.506Z,0.27
2022-09-02T03:47:51.407Z,0.37
2022-09-02T03:50:20.258Z,0.30
2022-09-02T03:52:47.281Z,0.30
2022-09-02T03:55:14.266Z,0.40
2022-09-02T03:57:41.260Z,0.30
2022-09-02T04:00:14.614Z,0.30
2022-09-02T04:02:42.170Z,0.30
2022-09-02T04:05:15.726Z,0.20
2022-09-02T04:07:43.143Z,0.30
2022-09-02T04:10:14.038Z,0.30
2022-09-02T04:12:40.874Z,0.30
2022-09-02T04:15:09.784Z,0.40
2022-09-02T04:17:38.566Z,0.60
2022-09-02T04:20:07.143Z,0.33
2022-09-02T04:22:34.185Z,0.50
2022-09-02T04:25:00.978Z,0.23
2022-09-02T04:27:27.745Z,0.40
2022-09-02T04:29:54.499Z,0.50
2022-09-02T04:32:21.841Z,0.40
2022-09-02T04:34:49.963Z,0.60
2022-09-02T04:37:16.982Z,0.40
2022-09-02T04:39:43.631Z,0.37
2022-09-02T04:42:10.436Z,0.40
2022-09-02T04:44:37.235Z,0.30
2022-09-02T04:47:04.143Z,0.40
2022-09-02T04:49:32.874Z,0.40
2022-09-02T04:52:00.333Z,0.40
2022-09-02T04:54:27.385Z,0.30
2022-09-02T04:56:54.128Z,0.43
2022-09-02T04:59:21.372Z,0.50
2022-09-02T05:01:50.121Z,0.30
2022-09-02T05:04:16.997Z,0.50
2022-09-02T05:06:44.697Z,0.40
2022-09-02T05:09:11.715Z,0.50
2022-09-02T05:11:38.899Z,0.30
2022-09-02T05:14:07.214Z,0.30
2022-09-02T05:16:38.423Z,0.50
2022-09-02T05:19:06.788Z,0.30
2022-09-02T05:21:33.491Z,0.40
2022-09-02T05:24:01.163Z,0.40
2022-09-02T05:26:30.113Z,0.50
2022-09-02T05:28:56.814Z,0.40
2022-09-02T05:31:23.527Z,0.50
2022-09-02T05:33:50.274Z,0.30
2022-09-02T05:36:22.237Z,0.30
2022-09-02T05:38:49.422Z,0.30
2022-09-02T05:41:23.551Z,0.20
2022-09-02T05:44:01.408Z,0.37
2022-09-02T05:46:33.439Z,0.40
2022-09-02T05:49:06.464Z,0.30
2022-09-02T05:51:41.915Z,0.30
2022-09-02T05:54:17.051Z,0.40
2022-09-02T05:56:45.478Z,0.30
2022-09-02T05:59:12.942Z,0.23
2022-09-02T06:01:39.964Z,0.30
2022-09-02T06:04:07.446Z,0.30
2022-09-02T06:06:35.864Z,0.30
2022-09-02T06:09:04.381Z,0.30
2022-09-02T06:11:32.792Z,0.30
2022-09-02T06:13:59.518Z,0.20
2022-09-02T06:16:27.170Z,0.40
2022-09-02T06:18:56.686Z,0.30
2022-09-02T06:21:23.748Z,0.20
2022-09-02T06:23:50.594Z,0.20
2022-09-02T06:26:19.034Z,0.57
2022-09-02T06:28:46.063Z,0.20
2022-09-02T06:31:19.005Z,0.20
2022-09-02T06:33:50.926Z,0.37
2022-09-02T06:36:19.051Z,0.20
2022-09-02T06:38:48.410Z,0.20
2022-09-02T06:41:20.019Z,0.20
2022-09-02T06:43:49.546Z,0.20
2022-09-02T06:46:23.039Z,0.30
2022-09-02T06:48:50.340Z,0.13
2022-09-02T06:51:22.943Z,0.20
2022-09-02T06:53:49.993Z,0.33
2022-09-02T06:56:16.839Z,0.30
2022-09-02T06:58:43.618Z,0.30
2022-09-02T07:01:13.468Z,0.13
2022-09-02T07:03:59.304Z,0.20
2022-09-02T07:06:26.011Z,0.20
2022-09-02T07:08:55.242Z,0.20
2022-09-02T07:11:24.168Z,0.20
2022-09-02T07:13:56.573Z,0.20
2022-09-02T07:16:27.248Z,0.20
2022-09-02T07:18:54.426Z,0.30
2022-09-02T07:21:22.219Z,0.20
2022-09-02T07:23:51.806Z,0.20
2022-09-02T07:26:21.591Z,0.23
2022-09-02T07:28:48.267Z,0.30
2022-09-02T07:31:17.188Z,0.10
2022-09-02T07:33:45.138Z,0.20
2022-09-02T07:36:16.773Z,0.20
2022-09-02T07:38:43.579Z,0.30
2022-09-02T07:41:10.888Z,0.60
2022-09-02T07:43:41.240Z,0.30
2022-09-02T07:46:08.329Z,0.10
2022-09-02T07:48:35.904Z,0.20
2022-09-02T07:51:03.531Z,0.20
2022-09-02T07:53:35.330Z,0.20
2022-09-02T07:56:02.602Z,0.23
2022-09-02T07:58:29.440Z,0.20
2022-09-02T08:01:02.192Z,0.43
2022-09-02T08:03:29.930Z,0.40
2022-09-02T08:05:57.417Z,0.10
2022-09-02T08:08:27.634Z,0.40
2022-09-02T08:10:55.452Z,0.30
2022-09-02T08:13:24.230Z,0.10
2022-09-02T08:15:54.516Z,0.33
2022-09-02T08:18:22.519Z,0.20
2022-09-02T08:20:49.714Z,0.10
2022-09-02T08:23:33.638Z,0.27
2022-09-02T08:26:04.088Z,0.20
2022-09-02T08:28:32.160Z,0.10
2022-09-02T08:31:02.034Z,0.10
2022-09-02T08:33:28.862Z,0.10
2022-09-02T08:35:55.517Z,0.20
2022-09-02T08:38:22.497Z,0.30
2022-09-02T08:40:51.235Z,0.20
2022-09-02T08:43:27.031Z,0.30
2022-09-02T08:45:57.463Z,0.20
2022-09-02T08:48:24.099Z,0.20
2022-09-02T08:50:55.407Z,0.20
2022-09-02T08:53:42.539Z,0.20
2022-09-02T08:56:12.518Z,0.13
2022-09-02T08:58:47.087Z,0.30
2022-09-02T09:01:32.693Z,0.30
2022-09-02T09:04:21.111Z,0.20
2022-09-02T09:07:06.013Z,0.20
2022-09-02T09:09:48.115Z,0.20
2022-09-02T09:12:43.559Z,0.30
2022-09-02T09:15:12.979Z,0.22
2022-09-02T09:18:09.567Z,0.25
2022-09-02T09:20:42.420Z,0.20
2022-09-02T09:23:27.459Z,0.30
2022-09-02T09:26:00.377Z,0.40
2022-09-02T09:28:27.878Z,0.20
2022-09-02T09:30:54.526Z,0.22
2022-09-02T09:33:23.293Z,0.20
2022-09-02T09:35:55.009Z,0.20
2022-09-02T09:38:36.176Z,0.30
2022-09-02T09:41:16.541Z,0.30
2022-09-02T09:43:43.482Z,0.40
2022-09-02T09:46:36.243Z,0.20
2022-09-02T09:49:03.447Z,0.20
2022-09-02T09:51:30.143Z,0.22
2022-09-02T09:54:18.056Z,0.28
2022-09-02T09:56:44.674Z,0.20
2022-09-02T09:59:39.255Z,0.20
2022-09-02T10:02:06.182Z,0.30
2022-09-02T10:04:49.245Z,0.20
2022-09-02T10:07:35.815Z,0.30
2022-09-02T10:10:21.206Z,0.20
2022-09-02T10:12:54.332Z,0.27
2022-09-02T10:16:06.170Z,0.20
2022-09-02T10:18:42.899Z,0.27
2022-09-02T10:21:38.392Z,0.30
2022-09-02T10:24:29.540Z,0.10
2022-09-02T10:27:00.957Z,0.30
2022-09-02T10:29:52.493Z,0.30
2022-09-02T10:32:24.829Z,0.20
2022-09-02T10:35:13.980Z,0.20
2022-09-02T10:37:56.601Z,0.10
2022-09-02T10:40:41.638Z,0.20
2022-09-02T10:43:27.003Z,0.20
2022-09-02T10:46:01.373Z,0.20
2022-09-02T10:49:05.360Z,0.30
2022-09-02T10:52:01.729Z,0.10
2022-09-02T10:54:56.278Z,0.30
2022-09-02T10:57:31.672Z,0.33
2022-09-02T11:00:10.846Z,0.20
2022-09-02T11:03:02.108Z,0.20
2022-09-02T11:05:48.209Z,0.20
2022-09-02T11:08:21.688Z,0.20
2022-09-02T11:11:25.427Z,0.20
2022-09-02T11:14:29.717Z,0.10
2022-09-02T11:17:14.852Z,0.13
2022-09-02T11:19:52.107Z,0.13
2022-09-02T11:23:09.743Z,0.10
2022-09-02T11:25:55.733Z,0.20
2022-09-02T11:28:41.825Z,0.10
2022-09-02T11:31:34.623Z,0.10
2022-09-02T11:34:13.068Z,0.20
2022-09-02T11:36:41.255Z,0.20
2022-09-02T11:39:21.744Z,0.20
2022-09-02T11:42:11.872Z,0.13
2022-09-02T11:44:41.658Z,0.10
2022-09-02T11:47:45.657Z,0.10
2022-09-02T11:50:39.233Z,0.10
2022-09-02T11:53:25.546Z,0.30
2022-09-02T11:56:16.105Z,0.10
2022-09-02T11:58:45.455Z,0.10
2022-09-02T12:01:15.114Z,0.10
2022-09-02T12:04:16.271Z,0.20
2022-09-02T12:06:37.809Z,0.10
2022-09-02T12:09:07.768Z,0.10
2022-09-02T12:11:42.238Z,0.13
2022-09-02T12:14:32.638Z,0.10
2022-09-02T12:17:08.133Z,0.17
2022-09-02T12:19:38.567Z,0.10
2022-09-02T12:22:17.459Z,0.20
2022-09-02T12:24:57.698Z,0.10
2022-09-02T12:27:36.830Z,0.10
2022-09-02T12:30:10.133Z,0.20
2022-09-02T12:32:45.934Z,0.20
2022-09-02T12:35:31.437Z,0.23
2022-09-02T12:38:24.177Z,0.27
2022-09-02T12:41:06.083Z,0.10
2022-09-02T12:44:15.363Z,0.30
2022-09-02T12:46:53.346Z,0.17
2022-09-02T12:49:44.687Z,0.40
2022-09-02T12:52:45.031Z,0.10
2022-09-02T12:55:24.055Z,0.10
2022-09-02T12:57:55.842Z,0.20
2022-09-02T13:00:46.423Z,0.10
2022-09-02T13:03:22.026Z,0.30
2022-09-02T13:05:51.531Z,0.20
2022-09-02T13:08:33.146Z,0.13
2022-09-02T13:11:14.987Z,0.20
2022-09-02T13:14:15.550Z,0.10
2022-09-02T13:16:42.116Z,0.20
2022-09-02T13:19:27.107Z,0.20
2022-09-02T13:22:08.906Z,0.20
2022-09-02T13:24:58.744Z,0.30
2022-09-02T13:27:50.864Z,0.20
2022-09-02T13:30:28.431Z,0.10
2022-09-02T13:33:00.058Z,0.20
2022-09-02T13:35:31.517Z,0.13
2022-09-02T13:38:00.866Z,0.10
2022-09-02T13:40:33.614Z,0.13
2022-09-02T13:43:19.786Z,0.30
2022-09-02T13:45:49.215Z,0.37
2022-09-02T13:48:24.971Z,0.20
2022-09-02T13:50:54.019Z,0.40
2022-09-02T13:53:45.841Z,0.20
2022-09-02T13:56:27.395Z,0.20
2022-09-02T13:58:59.134Z,0.20
2022-09-02T14:01:30.472Z,0.20
2022-09-02T14:04:00.135Z,0.20
2022-09-02T14:06:30.987Z,0.10
2022-09-02T14:09:01.611Z,0.10
2022-09-02T14:11:30.618Z,0.10
2022-09-02T14:13:57.869Z,0.20
2022-09-02T14:16:29.087Z,0.10
2022-09-02T14:19:14.682Z,0.20
2022-09-02T14:21:53.422Z,0.10
2022-09-02T14:24:36.905Z,0.20
2022-09-02T14:27:03.731Z,0.20
2022-09-02T14:29:33.994Z,0.17
2022-09-02T14:32:21.450Z,0.20
2022-09-02T14:34:49.733Z,0.27
2022-09-02T14:37:28.696Z,0.30
2022-09-02T14:40:12.706Z,0.40
2022-09-02T14:42:53.682Z,0.20
2022-09-02T14:45:26.751Z,0.23
2022-09-02T14:47:53.881Z,0.20
2022-09-02T14:50:24.440Z,0.13
2022-09-02T14:52:58.691Z,0.20
2022-09-02T14:55:47.302Z,0.27
2022-09-02T14:58:16.278Z,0.20
2022-09-02T15:00:54.055Z,0.20
2022-09-02T15:03:21.459Z,0.10
2022-09-02T15:05:48.861Z,0.30
2022-09-02T15:08:16.261Z,0.40
2022-09-02T15:10:43.715Z,0.20
2022-09-02T15:13:13.603Z,0.30
2022-09-02T15:15:40.838Z,0.30
2022-09-02T15:18:09.169Z,0.30
2022-09-02T15:20:45.455Z,0.20
2022-09-02T15:23:12.121Z,0.23
2022-09-02T15:25:38.784Z,0.10
2022-09-02T15:28:06.312Z,0.10
2022-09-02T15:30:36.308Z,0.33
2022-09-02T15:33:04.716Z,0.30
2022-09-02T15:35:34.950Z,0.20
2022-09-02T15:38:03.185Z,0.23
2022-09-02T15:40:31.736Z,0.10
2022-09-02T15:43:00.098Z,0.20
2022-09-02T15:45:28.082Z,0.23
2022-09-02T15:47:58.545Z,0.20
2022-09-02T15:50:25.538Z,0.40
2022-09-02T15:52:56.043Z,0.20
2022-09-02T15:55:26.862Z,0.20
2022-09-02T15:57:56.470Z,0.13
2022-09-02T16:00:23.478Z,0.13
2022-09-02T16:02:54.744Z,0.13
2022-09-02T16:05:21.506Z,0.17
2022-09-02T16:07:48.640Z,0.10
2022-09-02T16:10:15.542Z,0.20
2022-09-02T16:12:42.274Z,3.47
2022-09-02T16:15:09.327Z,0.40
2022-09-02T16:17:36.192Z,0.50
2022-09-02T16:20:04.821Z,0.13
2022-09-02T16:22:31.576Z,0.20
2022-09-02T16:24:58.182Z,0.30
2022-09-02T16:27:43.142Z,0.20
2022-09-02T16:30:10.133Z,0.20
2022-09-02T16:32:37.927Z,0.20
2022-09-02T16:35:04.922Z,0.20
2022-09-02T16:37:31.581Z,0.30
2022-09-02T16:39:58.293Z,0.20
2022-09-02T16:42:25.099Z,0.13
2022-09-02T16:44:52.025Z,0.20
2022-09-02T16:47:18.916Z,0.10
2022-09-02T16:49:46.594Z,0.30
2022-09-02T16:52:13.902Z,0.30
2022-09-02T16:54:41.305Z,0.20
2022-09-02T16:57:08.949Z,0.30
2022-09-02T16:59:35.851Z,0.23
2022-09-02T17:02:02.556Z,0.20
2022-09-02T17:04:29.524Z,0.30
2022-09-02T17:06:56.769Z,0.27
2022-09-02T17:09:23.553Z,0.30
2022-09-02T17:11:50.263Z,0.40
2022-09-02T17:14:21.705Z,0.30
2022-09-02T17:16:50.173Z,0.60
2022-09-02T17:19:22.376Z,0.40
2022-09-02T17:21:53.975Z,0.40
2022-09-02T17:24:23.743Z,0.50
2022-09-02T17:26:54.326Z,0.40
2022-09-02T17:32:10.003Z,0.40
2022-09-02T17:34:37.531Z,0.53
2022-09-02T17:37:05.476Z,0.70
2022-09-02T17:39:33.935Z,0.50
2022-09-02T17:42:01.905Z,0.50
2022-09-02T17:44:34.965Z,0.43
2022-09-02T17:47:30.389Z,0.50
2022-09-02T17:49:57.091Z,0.47
2022-09-02T17:52:24.594Z,0.50
2022-09-02T17:54:53.748Z,0.50
2022-09-02T17:57:29.710Z,0.50
2022-09-02T18:00:08.813Z,0.50
2022-09-02T18:03:00.042Z,0.60
2022-09-02T18:05:30.122Z,0.50
2022-09-02T18:08:12.828Z,0.57
2022-09-02T18:10:52.822Z,0.40
2022-09-02T18:14:03.027Z,0.57
2022-09-02T18:16:33.390Z,0.40
2022-09-02T18:19:43.865Z,0.40
2022-09-02T18:22:22.318Z,0.50
2022-09-02T18:25:15.333Z,0.40
2022-09-02T18:27:48.014Z,0.40
2022-09-02T18:30:28.550Z,0.50
2022-09-02T18:33:17.086Z,0.70
2022-09-02T18:36:00.309Z,0.67
2022-09-02T18:38:30.234Z,0.50
2022-09-02T18:41:10.324Z,0.50
2022-09-02T18:44:01.027Z,0.63
2022-09-02T18:46:34.255Z,0.70
2022-09-02T18:49:03.828Z,0.60
2022-09-02T18:51:38.330Z,0.90
2022-09-02T18:54:26.887Z,0.80
2022-09-02T18:56:57.839Z,0.80
2022-09-02T18:59:44.608Z,0.90
2022-09-02T19:02:22.580Z,1.10
2022-09-02T19:04:49.655Z,1.27
2022-09-02T19:07:38.408Z,1.10
2022-09-02T19:10:06.334Z,1.17
2022-09-02T19:12:36.227Z,1.33
2022-09-02T19:15:07.920Z,1.10
2022-09-02T19:17:34.795Z,1.03
2022-09-02T19:20:01.575Z,0.77
2022-09-02T19:22:30.658Z,1.10
2022-09-02T19:25:05.634Z,1.00
2022-09-02T19:27:35.373Z,0.80
2022-09-02T19:30:10.522Z,0.80
2022-09-02T19:32:38.646Z,0.87
2022-09-02T19:35:16.620Z,0.70
2022-09-02T19:37:51.148Z,1.03
2022-09-02T19:40:24.235Z,1.13
2022-09-02T19:42:54.047Z,0.90
2022-09-02T19:45:21.933Z,0.90
2022-09-02T19:48:07.585Z,0.83
2022-09-02T19:50:43.663Z,0.70
2022-09-02T19:53:16.282Z,0.93
2022-09-02T19:55:43.127Z,0.80
2022-09-02T19:58:09.847Z,1.00
2022-09-02T20:00:37.584Z,0.97
2022-09-02T20:03:04.276Z,1.00
2022-09-02T20:05:31.388Z,0.70
2022-09-02T20:07:58.086Z,0.70
2022-09-02T20:10:28.043Z,0.60
2022-09-02T20:12:55.090Z,0.50
2022-09-02T20:15:21.921Z,0.70
2022-09-02T20:17:49.464Z,0.87
2022-09-02T20:20:19.793Z,0.90
2022-09-02T20:22:55.269Z,0.90
2022-09-02T20:25:30.912Z,1.13
2022-09-02T20:28:10.406Z,1.13
2022-09-02T20:30:42.497Z,1.03
2022-09-02T20:33:33.486Z,1.27
2022-09-02T20:36:11.329Z,0.87
2022-09-02T20:39:03.882Z,0.90
2022-09-02T20:41:48.436Z,0.80
2022-09-02T20:44:27.503Z,0.80
2022-09-02T20:47:08.066Z,1.40
2022-09-02T20:49:54.101Z,0.90
2022-09-02T20:52:50.985Z,1.00
2022-09-02T20:55:35.541Z,0.90
2022-09-02T20:58:17.147Z,0.97
2022-09-02T21:01:01.285Z,0.63
2022-09-02T21:03:37.593Z,1.00
2022-09-02T21:06:04.458Z,0.97
2022-09-02T21:08:38.528Z,0.93
2022-09-02T21:11:14.730Z,0.90
2022-09-02T21:13:57.161Z,0.87
2022-09-02T21:16:28.440Z,0.63
2022-09-02T21:19:07.066Z,0.63
2022-09-02T21:21:58.235Z,0.60
2022-09-02T21:24:47.919Z,0.60
2022-09-02T21:27:21.207Z,0.60
2022-09-02T21:29:50.940Z,1.10
2022-09-02T21:33:04.939Z,0.73
2022-09-02T21:35:41.997Z,0.80
2022-09-02T21:38:39.095Z,0.50
2022-09-02T21:41:35.330Z,0.80
2022-09-02T21:44:28.049Z,0.70
2022-09-02T21:47:36.228Z,0.60
2022-09-02T21:50:41.251Z,0.90
2022-09-02T21:53:25.564Z,0.80
2022-09-02T21:56:04.369Z,1.00
2022-09-02T21:58:45.058Z,1.10
2022-09-02T22:01:23.507Z,1.20
2022-09-02T22:03:56.392Z,0.90
2022-09-02T22:06:34.008Z,1.50
2022-09-02T22:09:14.831Z,1.00
2022-09-02T22:11:54.380Z,1.53
2022-09-02T22:14:39.520Z,1.10
2022-09-02T22:17:22.073Z,1.03
2022-09-02T22:19:57.894Z,1.37
2022-09-02T22:22:30.630Z,1.10
2022-09-02T22:24:58.090Z,1.00
2022-09-02T22:27:39.684Z,1.00
2022-09-02T22:30:12.103Z,0.90
2022-09-02T22:32:49.198Z,1.17
2022-09-02T22:35:40.308Z,1.00
2022-09-02T22:38:47.166Z,0.87
2022-09-02T22:41:30.339Z,1.20
2022-09-02T22:44:22.508Z,1.07
2022-09-02T22:47:23.108Z,1.07
2022-09-02T22:50:16.115Z,0.90
2022-09-02T22:52:46.499Z,1.10
2022-09-02T22:55:15.247Z,1.20
2022-09-02T22:57:42.145Z,0.90
2022-09-02T23:00:13.830Z,1.10
2022-09-02T23:02:59.250Z,1.20
2022-09-02T23:05:49.390Z,1.20
2022-09-02T23:08:20.710Z,0.97
2022-09-02T23:10:58.585Z,1.00
2022-09-02T23:13:43.689Z,0.80
2022-09-02T23:16:52.858Z,0.90
2022-09-02T23:19:36.515Z,0.90
2022-09-02T23:22:20.332Z,0.67
2022-09-02T23:24:55.283Z,0.87
2022-09-02T23:27:37.303Z,0.70
2022-09-02T23:30:04.507Z,0.90
2022-09-02T23:33:10.071Z,1.10
2022-09-02T23:35:56.285Z,0.80
2022-09-02T23:38:47.046Z,1.07
2022-09-02T23:41:15.346Z,0.67
2022-09-02T23:43:43.950Z,1.27
2022-09-02T23:46:38.460Z,1.00
2022-09-02T23:49:38.398Z,1.07
2022-09-02T23:52:29.883Z,0.97
2022-09-02T23:55:09.118Z,1.30
2022-09-02T23:57:51.502Z,1.00
